sensor_id;sensor_type;location;lat;lon;timestamp;P1;durP1;ratioP1;P2;durP2;ratioP2
65583;SDS011;73032;43.592;1.458;2024-01-15T00:00:20;7.20;;;3.60;;
65583;SDS011;73032;43.592;1.458;2024-01-15T00:02:47;7.45;;;4.13;;
65583;SDS011;73032;43.592;1.458;2024-01-15T00:05:13;7.25;;;3.95;;
65583;SDS011;73032;43.592;1.458;2024-01-15T00:07:40;8.32;;;4.38;;
65583;SDS011;73032;43.592;1.458;2024-01-15T00:10:07;6.80;;;3.70;;
65583;SDS011;73032;43.592;1.458;2024-01-15T00:12:33;7.57;;;3.92;;
65583;SDS011;73032;43.592;1.458;2024-01-15T00:15:00;8.25;;;3.95;;
65583;SDS011;73032;43.592;1.458;2024-01-15T00:17:27;8.80;;;3.80;;
65583;SDS011;73032;43.592;1.458;2024-01-15T00:19:54;6.80;;;3.97;;
65583;SDS011;73032;43.592;1.458;2024-01-15T00:22:20;6.53;;;3.63;;
65583;SDS011;73032;43.592;1.458;2024-01-15T00:24:47;6.47;;;3.63;;
65583;SDS011;73032;43.592;1.458;2024-01-15T00:27:14;6.93;;;3.38;;
65583;SDS011;73032;43.592;1.458;2024-01-15T00:29:41;7.50;;;3.92;;
65583;SDS011;73032;43.592;1.458;2024-01-15T00:32:07;7.25;;;4.10;;
65583;SDS011;73032;43.592;1.458;2024-01-15T00:34:34;6.18;;;3.40;;
65583;SDS011;73032;43.592;1.458;2024-01-15T00:37:01;6.63;;;3.47;;
65583;SDS011;73032;43.592;1.458;2024-01-15T00:39:27;5.47;;;3.13;;
65583;SDS011;73032;43.592;1.458;2024-01-15T00:41:54;6.70;;;3.50;;
65583;SDS011;73032;43.592;1.458;2024-01-15T00:44:21;6.22;;;3.72;;
65583;SDS011;73032;43.592;1.458;2024-01-15T00:46:48;6.78;;;3.45;;
65583;SDS011;73032;43.592;1.458;2024-01-15T00:49:14;7.00;;;4.20;;
65583;SDS011;73032;43.592;1.458;2024-01-15T00:51:42;7.45;;;3.13;;
65583;SDS011;73032;43.592;1.458;2024-01-15T00:54:09;6.07;;;3.80;;
65583;SDS011;73032;43.592;1.458;2024-01-15T00:56:36;5.45;;;3.45;;
65583;SDS011;73032;43.592;1.458;2024-01-15T00:59:03;6.25;;;3.17;;
65583;SDS011;73032;43.592;1.458;2024-01-15T01:01:29;5.75;;;3.30;;
65583;SDS011;73032;43.592;1.458;2024-01-15T01:03:56;6.50;;;3.63;;
65583;SDS011;73032;43.592;1.458;2024-01-15T01:06:24;7.63;;;3.60;;
65583;SDS011;73032;43.592;1.458;2024-01-15T01:08:51;7.63;;;3.30;;
65583;SDS011;73032;43.592;1.458;2024-01-15T01:11:18;6.97;;;3.42;;
65583;SDS011;73032;43.592;1.458;2024-01-15T01:13:45;6.88;;;3.70;;
65583;SDS011;73032;43.592;1.458;2024-01-15T01:16:11;6.15;;;3.13;;
65583;SDS011;73032;43.592;1.458;2024-01-15T01:18:38;6.32;;;3.30;;
65583;SDS011;73032;43.592;1.458;2024-01-15T01:21:05;5.65;;;3.42;;
65583;SDS011;73032;43.592;1.458;2024-01-15T01:23:32;5.85;;;3.10;;
65583;SDS011;73032;43.592;1.458;2024-01-15T01:25:59;6.07;;;2.92;;
65583;SDS011;73032;43.592;1.458;2024-01-15T01:28:26;7.03;;;3.10;;
65583;SDS011;73032;43.592;1.458;2024-01-15T01:30:52;6.68;;;3.20;;
65583;SDS011;73032;43.592;1.458;2024-01-15T01:33:19;7.07;;;3.08;;
65583;SDS011;73032;43.592;1.458;2024-01-15T01:35:46;4.82;;;2.60;;
65583;SDS011;73032;43.592;1.458;2024-01-15T01:38:13;5.68;;;3.05;;
65583;SDS011;73032;43.592;1.458;2024-01-15T01:40:40;6.78;;;3.17;;
65583;SDS011;73032;43.592;1.458;2024-01-15T01:43:08;5.50;;;2.90;;
65583;SDS011;73032;43.592;1.458;2024-01-15T01:45:35;4.93;;;2.85;;
65583;SDS011;73032;43.592;1.458;2024-01-15T01:48:02;5.35;;;2.88;;
65583;SDS011;73032;43.592;1.458;2024-01-15T01:50:30;5.68;;;2.83;;
65583;SDS011;73032;43.592;1.458;2024-01-15T01:52:58;5.30;;;2.53;;
65583;SDS011;73032;43.592;1.458;2024-01-15T01:55:26;5.25;;;2.65;;
65583;SDS011;73032;43.592;1.458;2024-01-15T01:57:56;4.63;;;2.40;;
65583;SDS011;73032;43.592;1.458;2024-01-15T02:00:23;4.35;;;2.40;;
65583;SDS011;73032;43.592;1.458;2024-01-15T02:02:50;5.07;;;2.63;;
65583;SDS011;73032;43.592;1.458;2024-01-15T02:05:20;5.03;;;2.60;;
65583;SDS011;73032;43.592;1.458;2024-01-15T02:07:48;3.85;;;2.00;;
65583;SDS011;73032;43.592;1.458;2024-01-15T02:10:15;3.35;;;2.22;;
65583;SDS011;73032;43.592;1.458;2024-01-15T02:12:43;3.58;;;2.20;;
65583;SDS011;73032;43.592;1.458;2024-01-15T02:15:10;6.60;;;2.53;;
65583;SDS011;73032;43.592;1.458;2024-01-15T02:17:56;3.75;;;2.00;;
65583;SDS011;73032;43.592;1.458;2024-01-15T02:20:26;3.83;;;1.80;;
65583;SDS011;73032;43.592;1.458;2024-01-15T02:22:53;3.92;;;2.10;;
65583;SDS011;73032;43.592;1.458;2024-01-15T02:25:20;3.53;;;1.98;;
65583;SDS011;73032;43.592;1.458;2024-01-15T02:27:47;4.68;;;2.55;;
65583;SDS011;73032;43.592;1.458;2024-01-15T02:30:17;4.15;;;2.30;;
65583;SDS011;73032;43.592;1.458;2024-01-15T02:32:44;4.75;;;2.28;;
65583;SDS011;73032;43.592;1.458;2024-01-15T02:35:11;5.30;;;2.50;;
65583;SDS011;73032;43.592;1.458;2024-01-15T02:37:38;4.97;;;2.42;;
65583;SDS011;73032;43.592;1.458;2024-01-15T02:40:05;3.67;;;2.20;;
65583;SDS011;73032;43.592;1.458;2024-01-15T02:42:32;4.97;;;2.53;;
65583;SDS011;73032;43.592;1.458;2024-01-15T02:45:00;4.63;;;2.20;;
65583;SDS011;73032;43.592;1.458;2024-01-15T02:47:27;4.97;;;2.28;;
65583;SDS011;73032;43.592;1.458;2024-01-15T02:49:54;3.88;;;1.92;;
65583;SDS011;73032;43.592;1.458;2024-01-15T02:52:20;3.67;;;2.08;;
65583;SDS011;73032;43.592;1.458;2024-01-15T02:54:47;3.55;;;2.22;;
65583;SDS011;73032;43.592;1.458;2024-01-15T02:57:14;3.45;;;2.03;;
65583;SDS011;73032;43.592;1.458;2024-01-15T02:59:41;6.78;;;2.47;;
65583;SDS011;73032;43.592;1.458;2024-01-15T03:02:07;4.35;;;2.33;;
65583;SDS011;73032;43.592;1.458;2024-01-15T03:04:34;5.60;;;2.40;;
65583;SDS011;73032;43.592;1.458;2024-01-15T03:07:01;5.25;;;2.20;;
65583;SDS011;73032;43.592;1.458;2024-01-15T03:09:28;3.78;;;2.10;;
65583;SDS011;73032;43.592;1.458;2024-01-15T03:11:54;3.45;;;2.08;;
65583;SDS011;73032;43.592;1.458;2024-01-15T03:14:21;3.60;;;2.00;;
65583;SDS011;73032;43.592;1.458;2024-01-15T03:16:50;3.83;;;2.00;;
65583;SDS011;73032;43.592;1.458;2024-01-15T03:19:18;4.20;;;2.17;;
65583;SDS011;73032;43.592;1.458;2024-01-15T03:21:45;4.82;;;1.90;;
65583;SDS011;73032;43.592;1.458;2024-01-15T03:24:12;3.72;;;2.17;;
65583;SDS011;73032;43.592;1.458;2024-01-15T03:26:38;3.50;;;1.90;;
65583;SDS011;73032;43.592;1.458;2024-01-15T03:29:05;5.15;;;2.15;;
65583;SDS011;73032;43.592;1.458;2024-01-15T03:31:33;4.60;;;2.20;;
65583;SDS011;73032;43.592;1.458;2024-01-15T03:34:00;3.53;;;2.00;;
65583;SDS011;73032;43.592;1.458;2024-01-15T03:36:27;2.95;;;1.80;;
65583;SDS011;73032;43.592;1.458;2024-01-15T03:38:53;4.32;;;1.90;;
65583;SDS011;73032;43.592;1.458;2024-01-15T03:41:20;4.28;;;1.98;;
65583;SDS011;73032;43.592;1.458;2024-01-15T03:43:47;3.13;;;2.00;;
65583;SDS011;73032;43.592;1.458;2024-01-15T03:46:13;3.05;;;1.90;;
65583;SDS011;73032;43.592;1.458;2024-01-15T03:48:40;3.13;;;1.90;;
65583;SDS011;73032;43.592;1.458;2024-01-15T03:51:07;3.72;;;2.05;;
65583;SDS011;73032;43.592;1.458;2024-01-15T03:53:34;3.00;;;1.70;;
65583;SDS011;73032;43.592;1.458;2024-01-15T03:56:00;3.22;;;1.80;;
65583;SDS011;73032;43.592;1.458;2024-01-15T03:58:27;4.03;;;2.00;;
65583;SDS011;73032;43.592;1.458;2024-01-15T04:00:54;3.72;;;1.75;;
65583;SDS011;73032;43.592;1.458;2024-01-15T04:03:20;2.88;;;1.70;;
65583;SDS011;73032;43.592;1.458;2024-01-15T04:05:47;2.50;;;1.38;;
65583;SDS011;73032;43.592;1.458;2024-01-15T04:08:14;4.32;;;1.75;;
65583;SDS011;73032;43.592;1.458;2024-01-15T04:10:40;3.22;;;1.80;;
65583;SDS011;73032;43.592;1.458;2024-01-15T04:13:07;3.10;;;1.90;;
65583;SDS011;73032;43.592;1.458;2024-01-15T04:15:34;4.53;;;1.95;;
65583;SDS011;73032;43.592;1.458;2024-01-15T04:18:01;2.47;;;1.52;;
65583;SDS011;73032;43.592;1.458;2024-01-15T04:20:29;3.15;;;1.75;;
65583;SDS011;73032;43.592;1.458;2024-01-15T04:22:55;2.72;;;1.50;;
65583;SDS011;73032;43.592;1.458;2024-01-15T04:25:22;3.22;;;1.67;;
65583;SDS011;73032;43.592;1.458;2024-01-15T04:27:49;2.55;;;1.48;;
65583;SDS011;73032;43.592;1.458;2024-01-15T04:30:15;1.95;;;1.23;;
65583;SDS011;73032;43.592;1.458;2024-01-15T04:32:42;2.88;;;1.60;;
65583;SDS011;73032;43.592;1.458;2024-01-15T04:35:09;3.22;;;1.63;;
65583;SDS011;73032;43.592;1.458;2024-01-15T04:37:36;2.75;;;1.60;;
65583;SDS011;73032;43.592;1.458;2024-01-15T04:40:02;2.78;;;1.45;;
65583;SDS011;73032;43.592;1.458;2024-01-15T04:42:30;2.60;;;1.40;;
65583;SDS011;73032;43.592;1.458;2024-01-15T04:44:57;2.78;;;1.58;;
65583;SDS011;73032;43.592;1.458;2024-01-15T04:47:23;2.70;;;1.40;;
65583;SDS011;73032;43.592;1.458;2024-01-15T04:49:50;4.32;;;1.90;;
65583;SDS011;73032;43.592;1.458;2024-01-15T04:52:17;2.45;;;1.42;;
65583;SDS011;73032;43.592;1.458;2024-01-15T04:54:44;3.10;;;1.58;;
65583;SDS011;73032;43.592;1.458;2024-01-15T04:57:11;4.45;;;1.80;;
65583;SDS011;73032;43.592;1.458;2024-01-15T04:59:38;3.70;;;1.83;;
65583;SDS011;73032;43.592;1.458;2024-01-15T05:02:04;3.55;;;1.70;;
65583;SDS011;73032;43.592;1.458;2024-01-15T05:04:31;3.15;;;1.90;;
65583;SDS011;73032;43.592;1.458;2024-01-15T05:06:59;4.40;;;1.95;;
65583;SDS011;73032;43.592;1.458;2024-01-15T05:09:26;5.32;;;2.08;;
65583;SDS011;73032;43.592;1.458;2024-01-15T05:11:56;3.63;;;2.00;;
65583;SDS011;73032;43.592;1.458;2024-01-15T05:14:22;5.18;;;2.20;;
65583;SDS011;73032;43.592;1.458;2024-01-15T05:16:49;5.70;;;2.60;;
65583;SDS011;73032;43.592;1.458;2024-01-15T05:19:17;5.50;;;2.42;;
65583;SDS011;73032;43.592;1.458;2024-01-15T05:21:44;5.47;;;2.30;;
65583;SDS011;73032;43.592;1.458;2024-01-15T05:24:11;5.53;;;2.50;;
65583;SDS011;73032;43.592;1.458;2024-01-15T05:26:38;5.22;;;2.13;;
65583;SDS011;73032;43.592;1.458;2024-01-15T05:29:05;4.13;;;2.30;;
65583;SDS011;73032;43.592;1.458;2024-01-15T05:31:32;6.22;;;2.63;;
65583;SDS011;73032;43.592;1.458;2024-01-15T05:33:59;4.60;;;2.25;;
65583;SDS011;73032;43.592;1.458;2024-01-15T05:36:26;5.38;;;2.40;;
65583;SDS011;73032;43.592;1.458;2024-01-15T05:38:52;5.50;;;2.40;;
65583;SDS011;73032;43.592;1.458;2024-01-15T05:41:19;5.97;;;2.80;;
65583;SDS011;73032;43.592;1.458;2024-01-15T05:43:46;6.93;;;2.42;;
65583;SDS011;73032;43.592;1.458;2024-01-15T05:46:12;5.30;;;2.47;;
65583;SDS011;73032;43.592;1.458;2024-01-15T05:48:40;6.03;;;2.58;;
65583;SDS011;73032;43.592;1.458;2024-01-15T05:51:07;6.68;;;2.80;;
65583;SDS011;73032;43.592;1.458;2024-01-15T05:53:34;6.45;;;2.70;;
65583;SDS011;73032;43.592;1.458;2024-01-15T05:56:00;5.38;;;2.85;;
65583;SDS011;73032;43.592;1.458;2024-01-15T05:58:27;7.75;;;2.70;;
65583;SDS011;73032;43.592;1.458;2024-01-15T06:00:54;5.55;;;2.88;;
65583;SDS011;73032;43.592;1.458;2024-01-15T06:03:21;6.40;;;2.72;;
65583;SDS011;73032;43.592;1.458;2024-01-15T06:05:47;7.03;;;2.85;;
65583;SDS011;73032;43.592;1.458;2024-01-15T06:08:14;8.65;;;3.53;;
65583;SDS011;73032;43.592;1.458;2024-01-15T06:10:41;10.10;;;3.28;;
65583;SDS011;73032;43.592;1.458;2024-01-15T06:13:08;6.90;;;3.40;;
65583;SDS011;73032;43.592;1.458;2024-01-15T06:15:35;7.30;;;3.10;;
65583;SDS011;73032;43.592;1.458;2024-01-15T06:18:01;6.18;;;2.90;;
65583;SDS011;73032;43.592;1.458;2024-01-15T06:20:28;6.40;;;3.10;;
65583;SDS011;73032;43.592;1.458;2024-01-15T06:22:55;6.93;;;2.97;;
65583;SDS011;73032;43.592;1.458;2024-01-15T06:25:22;6.03;;;3.20;;
65583;SDS011;73032;43.592;1.458;2024-01-15T06:27:48;6.70;;;3.30;;
65583;SDS011;73032;43.592;1.458;2024-01-15T06:30:15;6.43;;;2.72;;
65583;SDS011;73032;43.592;1.458;2024-01-15T06:32:42;5.82;;;3.22;;
65583;SDS011;73032;43.592;1.458;2024-01-15T06:35:09;5.90;;;2.70;;
65583;SDS011;73032;43.592;1.458;2024-01-15T06:37:38;5.32;;;2.95;;
65583;SDS011;73032;43.592;1.458;2024-01-15T06:40:04;5.53;;;2.85;;
65583;SDS011;73032;43.592;1.458;2024-01-15T06:42:32;4.75;;;2.67;;
65583;SDS011;73032;43.592;1.458;2024-01-15T06:44:59;4.53;;;2.63;;
65583;SDS011;73032;43.592;1.458;2024-01-15T06:47:26;5.68;;;2.90;;
65583;SDS011;73032;43.592;1.458;2024-01-15T06:49:52;5.05;;;2.78;;
65583;SDS011;73032;43.592;1.458;2024-01-15T06:52:19;7.32;;;3.47;;
65583;SDS011;73032;43.592;1.458;2024-01-15T06:54:46;6.75;;;3.30;;
65583;SDS011;73032;43.592;1.458;2024-01-15T06:57:14;5.60;;;2.80;;
65583;SDS011;73032;43.592;1.458;2024-01-15T06:59:41;5.60;;;2.83;;
65583;SDS011;73032;43.592;1.458;2024-01-15T07:02:07;6.10;;;3.15;;
65583;SDS011;73032;43.592;1.458;2024-01-15T07:04:34;5.28;;;2.70;;
65583;SDS011;73032;43.592;1.458;2024-01-15T07:07:01;5.20;;;2.60;;
65583;SDS011;73032;43.592;1.458;2024-01-15T07:09:27;8.90;;;3.45;;
65583;SDS011;73032;43.592;1.458;2024-01-15T07:11:54;5.32;;;2.70;;
65583;SDS011;73032;43.592;1.458;2024-01-15T07:14:23;5.97;;;3.15;;
65583;SDS011;73032;43.592;1.458;2024-01-15T07:16:50;6.95;;;3.47;;
65583;SDS011;73032;43.592;1.458;2024-01-15T07:19:16;6.03;;;3.00;;
65583;SDS011;73032;43.592;1.458;2024-01-15T07:21:43;5.75;;;3.10;;
65583;SDS011;73032;43.592;1.458;2024-01-15T07:24:10;7.50;;;3.35;;
65583;SDS011;73032;43.592;1.458;2024-01-15T07:26:37;8.27;;;3.53;;
65583;SDS011;73032;43.592;1.458;2024-01-15T07:29:04;7.00;;;3.75;;
65583;SDS011;73032;43.592;1.458;2024-01-15T07:31:31;7.07;;;3.67;;
65583;SDS011;73032;43.592;1.458;2024-01-15T07:33:59;8.20;;;3.83;;
65583;SDS011;73032;43.592;1.458;2024-01-15T07:36:26;7.63;;;3.67;;
65583;SDS011;73032;43.592;1.458;2024-01-15T07:38:53;6.82;;;3.47;;
65583;SDS011;73032;43.592;1.458;2024-01-15T07:41:20;6.63;;;3.42;;
65583;SDS011;73032;43.592;1.458;2024-01-15T07:43:46;5.63;;;3.15;;
65583;SDS011;73032;43.592;1.458;2024-01-15T07:46:13;8.98;;;3.55;;
65583;SDS011;73032;43.592;1.458;2024-01-15T07:48:40;7.70;;;3.50;;
65583;SDS011;73032;43.592;1.458;2024-01-15T07:51:07;8.60;;;3.90;;
65583;SDS011;73032;43.592;1.458;2024-01-15T07:53:33;7.70;;;3.55;;
65583;SDS011;73032;43.592;1.458;2024-01-15T07:56:00;8.65;;;4.05;;
65583;SDS011;73032;43.592;1.458;2024-01-15T07:58:27;6.65;;;3.35;;
65583;SDS011;73032;43.592;1.458;2024-01-15T08:00:54;7.80;;;3.90;;
65583;SDS011;73032;43.592;1.458;2024-01-15T08:03:20;7.55;;;3.40;;
65583;SDS011;73032;43.592;1.458;2024-01-15T08:05:47;6.65;;;3.50;;
65583;SDS011;73032;43.592;1.458;2024-01-15T08:08:16;8.77;;;4.05;;
65583;SDS011;73032;43.592;1.458;2024-01-15T08:10:43;7.45;;;3.70;;
65583;SDS011;73032;43.592;1.458;2024-01-15T08:13:10;8.23;;;4.05;;
65583;SDS011;73032;43.592;1.458;2024-01-15T08:15:37;9.13;;;4.32;;
65583;SDS011;73032;43.592;1.458;2024-01-15T08:18:03;9.80;;;3.90;;
65583;SDS011;73032;43.592;1.458;2024-01-15T08:20:30;8.38;;;3.78;;
65583;SDS011;73032;43.592;1.458;2024-01-15T08:22:58;7.65;;;3.80;;
65583;SDS011;73032;43.592;1.458;2024-01-15T08:25:24;7.45;;;3.88;;
65583;SDS011;73032;43.592;1.458;2024-01-15T08:27:52;8.10;;;3.78;;
65583;SDS011;73032;43.592;1.458;2024-01-15T08:30:19;8.15;;;3.97;;
65583;SDS011;73032;43.592;1.458;2024-01-15T08:32:46;9.68;;;4.43;;
65583;SDS011;73032;43.592;1.458;2024-01-15T08:35:13;6.85;;;3.55;;
65583;SDS011;73032;43.592;1.458;2024-01-15T08:37:40;9.57;;;4.38;;
65583;SDS011;73032;43.592;1.458;2024-01-15T08:40:07;13.60;;;6.57;;
65583;SDS011;73032;43.592;1.458;2024-01-15T08:42:34;14.07;;;5.82;;
65583;SDS011;73032;43.592;1.458;2024-01-15T08:45:01;10.98;;;5.10;;
65583;SDS011;73032;43.592;1.458;2024-01-15T08:47:30;10.05;;;4.53;;
65583;SDS011;73032;43.592;1.458;2024-01-15T08:49:57;7.22;;;3.55;;
65583;SDS011;73032;43.592;1.458;2024-01-15T08:52:25;7.50;;;3.88;;
65583;SDS011;73032;43.592;1.458;2024-01-15T08:54:52;7.95;;;3.63;;
65583;SDS011;73032;43.592;1.458;2024-01-15T08:57:19;6.65;;;3.33;;
65583;SDS011;73032;43.592;1.458;2024-01-15T08:59:46;6.63;;;3.58;;
65583;SDS011;73032;43.592;1.458;2024-01-15T09:02:12;9.70;;;4.53;;
65583;SDS011;73032;43.592;1.458;2024-01-15T09:04:39;6.53;;;3.50;;
65583;SDS011;73032;43.592;1.458;2024-01-15T09:07:07;8.75;;;4.32;;
65583;SDS011;73032;43.592;1.458;2024-01-15T09:09:34;9.13;;;4.75;;
65583;SDS011;73032;43.592;1.458;2024-01-15T09:12:01;9.20;;;4.47;;
65583;SDS011;73032;43.592;1.458;2024-01-15T09:14:28;6.82;;;3.63;;
65583;SDS011;73032;43.592;1.458;2024-01-15T09:17:03;5.68;;;3.10;;
65583;SDS011;73032;43.592;1.458;2024-01-15T09:19:30;6.00;;;3.10;;
65583;SDS011;73032;43.592;1.458;2024-01-15T09:21:58;6.63;;;3.40;;
65583;SDS011;73032;43.592;1.458;2024-01-15T09:24:25;5.78;;;3.22;;
65583;SDS011;73032;43.592;1.458;2024-01-15T09:26:54;7.57;;;3.53;;
65583;SDS011;73032;43.592;1.458;2024-01-15T09:29:22;6.38;;;3.55;;
65583;SDS011;73032;43.592;1.458;2024-01-15T09:31:50;7.70;;;3.83;;
65583;SDS011;73032;43.592;1.458;2024-01-15T09:34:18;6.97;;;3.80;;
65583;SDS011;73032;43.592;1.458;2024-01-15T09:36:45;6.85;;;3.75;;
65583;SDS011;73032;43.592;1.458;2024-01-15T09:39:12;7.43;;;3.72;;
65583;SDS011;73032;43.592;1.458;2024-01-15T09:41:38;6.72;;;3.17;;
65583;SDS011;73032;43.592;1.458;2024-01-15T09:44:05;8.52;;;4.10;;
65583;SDS011;73032;43.592;1.458;2024-01-15T09:46:34;11.00;;;5.15;;
65583;SDS011;73032;43.592;1.458;2024-01-15T09:49:01;7.82;;;3.45;;
65583;SDS011;73032;43.592;1.458;2024-01-15T09:51:31;8.05;;;3.70;;
65583;SDS011;73032;43.592;1.458;2024-01-15T09:53:59;8.82;;;4.30;;
65583;SDS011;73032;43.592;1.458;2024-01-15T09:56:26;8.43;;;4.20;;
65583;SDS011;73032;43.592;1.458;2024-01-15T09:58:53;10.52;;;4.35;;
65583;SDS011;73032;43.592;1.458;2024-01-15T10:01:20;9.50;;;4.38;;
65583;SDS011;73032;43.592;1.458;2024-01-15T10:03:47;8.32;;;4.38;;
65583;SDS011;73032;43.592;1.458;2024-01-15T10:06:15;8.90;;;4.57;;
65583;SDS011;73032;43.592;1.458;2024-01-15T10:08:49;8.43;;;4.28;;
65583;SDS011;73032;43.592;1.458;2024-01-15T10:11:17;10.02;;;4.50;;
65583;SDS011;73032;43.592;1.458;2024-01-15T10:13:44;7.60;;;4.30;;
65583;SDS011;73032;43.592;1.458;2024-01-15T10:16:12;7.50;;;3.97;;
65583;SDS011;73032;43.592;1.458;2024-01-15T10:18:39;7.47;;;3.70;;
65583;SDS011;73032;43.592;1.458;2024-01-15T10:21:06;6.53;;;3.65;;
65583;SDS011;73032;43.592;1.458;2024-01-15T10:23:34;7.30;;;4.13;;
65583;SDS011;73032;43.592;1.458;2024-01-15T10:26:01;7.65;;;4.00;;
65583;SDS011;73032;43.592;1.458;2024-01-15T10:28:29;6.63;;;4.03;;
65583;SDS011;73032;43.592;1.458;2024-01-15T10:31:00;6.55;;;3.80;;
65583;SDS011;73032;43.592;1.458;2024-01-15T10:33:28;7.78;;;3.67;;
65583;SDS011;73032;43.592;1.458;2024-01-15T10:35:55;8.73;;;4.43;;
65583;SDS011;73032;43.592;1.458;2024-01-15T10:38:24;10.02;;;4.90;;
65583;SDS011;73032;43.592;1.458;2024-01-15T10:40:52;9.13;;;4.38;;
65583;SDS011;73032;43.592;1.458;2024-01-15T10:43:19;8.93;;;4.30;;
65583;SDS011;73032;43.592;1.458;2024-01-15T10:45:47;9.02;;;4.20;;
65583;SDS011;73032;43.592;1.458;2024-01-15T10:48:16;8.85;;;4.28;;
65583;SDS011;73032;43.592;1.458;2024-01-15T10:50:44;8.63;;;4.70;;
65583;SDS011;73032;43.592;1.458;2024-01-15T10:53:15;8.23;;;4.32;;
65583;SDS011;73032;43.592;1.458;2024-01-15T10:55:43;10.48;;;4.65;;
65583;SDS011;73032;43.592;1.458;2024-01-15T10:58:12;8.90;;;4.50;;
65583;SDS011;73032;43.592;1.458;2024-01-15T11:00:40;9.45;;;4.75;;
65583;SDS011;73032;43.592;1.458;2024-01-15T11:03:07;12.13;;;6.05;;
65583;SDS011;73032;43.592;1.458;2024-01-15T11:05:43;12.18;;;6.00;;
65583;SDS011;73032;43.592;1.458;2024-01-15T11:08:11;12.52;;;5.97;;
65583;SDS011;73032;43.592;1.458;2024-01-15T11:13:09;15.73;;;6.25;;
65583;SDS011;73032;43.592;1.458;2024-01-15T11:15:56;10.23;;;5.75;;
65583;SDS011;73032;43.592;1.458;2024-01-15T11:19:17;14.57;;;6.38;;
65583;SDS011;73032;43.592;1.458;2024-01-15T11:21:24;8.73;;;4.93;;
65583;SDS011;73032;43.592;1.458;2024-01-15T11:23:56;10.40;;;4.53;;
65583;SDS011;73032;43.592;1.458;2024-01-15T11:26:28;9.80;;;4.93;;
65583;SDS011;73032;43.592;1.458;2024-01-15T11:28:56;11.95;;;6.30;;
65583;SDS011;73032;43.592;1.458;2024-01-15T11:34:06;9.57;;;5.15;;
65583;SDS011;73032;43.592;1.458;2024-01-15T11:41:57;9.93;;;5.03;;
65583;SDS011;73032;43.592;1.458;2024-01-15T11:44:28;9.73;;;4.63;;
65583;SDS011;73032;43.592;1.458;2024-01-15T11:52:20;8.57;;;4.10;;
65583;SDS011;73032;43.592;1.458;2024-01-15T11:57:25;8.88;;;4.40;;
65583;SDS011;73032;43.592;1.458;2024-01-15T11:59:59;10.40;;;5.30;;
65583;SDS011;73032;43.592;1.458;2024-01-15T12:02:26;9.30;;;5.10;;
65583;SDS011;73032;43.592;1.458;2024-01-15T12:04:53;7.35;;;3.97;;
65583;SDS011;73032;43.592;1.458;2024-01-15T12:07:20;9.35;;;4.63;;
65583;SDS011;73032;43.592;1.458;2024-01-15T12:09:46;10.95;;;5.65;;
65583;SDS011;73032;43.592;1.458;2024-01-15T12:15:04;7.97;;;4.68;;
65583;SDS011;73032;43.592;1.458;2024-01-15T12:17:31;7.32;;;4.28;;
65583;SDS011;73032;43.592;1.458;2024-01-15T12:20:00;11.88;;;5.68;;
65583;SDS011;73032;43.592;1.458;2024-01-15T12:22:27;10.60;;;5.15;;
65583;SDS011;73032;43.592;1.458;2024-01-15T12:24:54;6.85;;;3.95;;
65583;SDS011;73032;43.592;1.458;2024-01-15T12:27:21;8.23;;;4.05;;
65583;SDS011;73032;43.592;1.458;2024-01-15T12:29:48;7.30;;;4.05;;
65583;SDS011;73032;43.592;1.458;2024-01-15T12:32:14;13.90;;;7.03;;
65583;SDS011;73032;43.592;1.458;2024-01-15T12:34:42;12.07;;;6.80;;
65583;SDS011;73032;43.592;1.458;2024-01-15T12:37:09;11.15;;;6.00;;
65583;SDS011;73032;43.592;1.458;2024-01-15T12:39:38;9.25;;;5.20;;
65583;SDS011;73032;43.592;1.458;2024-01-15T12:42:05;10.38;;;6.07;;
65583;SDS011;73032;43.592;1.458;2024-01-15T12:44:32;9.73;;;5.30;;
65583;SDS011;73032;43.592;1.458;2024-01-15T12:46:58;11.68;;;5.60;;
65583;SDS011;73032;43.592;1.458;2024-01-15T12:49:25;6.47;;;4.18;;
65583;SDS011;73032;43.592;1.458;2024-01-15T12:51:53;8.10;;;4.47;;
65583;SDS011;73032;43.592;1.458;2024-01-15T12:54:20;6.78;;;3.85;;
65583;SDS011;73032;43.592;1.458;2024-01-15T12:56:47;7.22;;;3.85;;
65583;SDS011;73032;43.592;1.458;2024-01-15T12:59:14;6.63;;;3.60;;
65583;SDS011;73032;43.592;1.458;2024-01-15T13:01:41;5.38;;;3.63;;
65583;SDS011;73032;43.592;1.458;2024-01-15T13:04:07;5.90;;;3.55;;
65583;SDS011;73032;43.592;1.458;2024-01-15T13:06:35;6.38;;;3.40;;
65583;SDS011;73032;43.592;1.458;2024-01-15T13:09:05;6.63;;;3.75;;
65583;SDS011;73032;43.592;1.458;2024-01-15T13:11:34;7.45;;;3.85;;
65583;SDS011;73032;43.592;1.458;2024-01-15T13:14:01;8.20;;;4.55;;
65583;SDS011;73032;43.592;1.458;2024-01-15T13:16:27;5.22;;;3.47;;
65583;SDS011;73032;43.592;1.458;2024-01-15T13:18:55;7.80;;;3.97;;
65583;SDS011;73032;43.592;1.458;2024-01-15T13:21:25;10.27;;;5.93;;
65583;SDS011;73032;43.592;1.458;2024-01-15T13:23:52;5.72;;;3.50;;
65583;SDS011;73032;43.592;1.458;2024-01-15T13:26:18;8.90;;;3.85;;
65583;SDS011;73032;43.592;1.458;2024-01-15T13:28:46;6.57;;;3.70;;
65583;SDS011;73032;43.592;1.458;2024-01-15T13:31:13;5.88;;;3.60;;
65583;SDS011;73032;43.592;1.458;2024-01-15T13:33:41;5.50;;;3.58;;
65583;SDS011;73032;43.592;1.458;2024-01-15T13:36:09;7.65;;;4.68;;
65583;SDS011;73032;43.592;1.458;2024-01-15T13:38:37;6.47;;;3.75;;
65583;SDS011;73032;43.592;1.458;2024-01-15T13:41:04;6.53;;;4.47;;
65583;SDS011;73032;43.592;1.458;2024-01-15T13:43:32;6.68;;;4.10;;
65583;SDS011;73032;43.592;1.458;2024-01-15T13:45:59;7.15;;;3.78;;
65583;SDS011;73032;43.592;1.458;2024-01-15T13:48:26;6.38;;;4.10;;
65583;SDS011;73032;43.592;1.458;2024-01-15T13:50:53;8.63;;;4.38;;
65583;SDS011;73032;43.592;1.458;2024-01-15T13:53:20;8.18;;;4.63;;
65583;SDS011;73032;43.592;1.458;2024-01-15T13:55:47;7.45;;;3.97;;
65583;SDS011;73032;43.592;1.458;2024-01-15T13:58:14;6.43;;;4.28;;
65583;SDS011;73032;43.592;1.458;2024-01-15T14:00:40;8.68;;;5.70;;
65583;SDS011;73032;43.592;1.458;2024-01-15T14:03:07;10.70;;;6.43;;
65583;SDS011;73032;43.592;1.458;2024-01-15T14:05:36;8.50;;;5.90;;
65583;SDS011;73032;43.592;1.458;2024-01-15T14:08:03;8.20;;;5.15;;
65583;SDS011;73032;43.592;1.458;2024-01-15T14:10:30;8.25;;;4.88;;
65583;SDS011;73032;43.592;1.458;2024-01-15T14:12:57;9.00;;;5.25;;
65583;SDS011;73032;43.592;1.458;2024-01-15T14:15:23;8.13;;;5.18;;
65583;SDS011;73032;43.592;1.458;2024-01-15T14:17:50;9.60;;;5.40;;
65583;SDS011;73032;43.592;1.458;2024-01-15T14:20:19;6.03;;;4.35;;
65583;SDS011;73032;43.592;1.458;2024-01-15T14:22:48;6.47;;;4.13;;
65583;SDS011;73032;43.592;1.458;2024-01-15T14:25:15;8.18;;;4.20;;
65583;SDS011;73032;43.592;1.458;2024-01-15T14:27:41;8.38;;;5.20;;
65583;SDS011;73032;43.592;1.458;2024-01-15T14:30:08;11.82;;;5.68;;
65583;SDS011;73032;43.592;1.458;2024-01-15T14:32:35;8.80;;;4.75;;
65583;SDS011;73032;43.592;1.458;2024-01-15T14:35:02;8.30;;;5.55;;
65583;SDS011;73032;43.592;1.458;2024-01-15T14:37:30;10.57;;;5.78;;
65583;SDS011;73032;43.592;1.458;2024-01-15T14:39:57;6.10;;;4.10;;
65583;SDS011;73032;43.592;1.458;2024-01-15T14:42:24;9.80;;;5.60;;
65583;SDS011;73032;43.592;1.458;2024-01-15T14:44:51;7.45;;;4.80;;
65583;SDS011;73032;43.592;1.458;2024-01-15T14:47:17;7.20;;;4.38;;
65583;SDS011;73032;43.592;1.458;2024-01-15T14:49:47;7.47;;;4.75;;
65583;SDS011;73032;43.592;1.458;2024-01-15T14:52:13;9.93;;;5.25;;
65583;SDS011;73032;43.592;1.458;2024-01-15T14:54:40;8.13;;;4.40;;
65583;SDS011;73032;43.592;1.458;2024-01-15T14:57:10;5.70;;;3.60;;
65583;SDS011;73032;43.592;1.458;2024-01-15T14:59:36;8.27;;;5.22;;
65583;SDS011;73032;43.592;1.458;2024-01-15T15:02:03;6.93;;;4.35;;
65583;SDS011;73032;43.592;1.458;2024-01-15T15:04:30;7.57;;;4.60;;
65583;SDS011;73032;43.592;1.458;2024-01-15T15:06:57;7.70;;;4.60;;